Time;durP1;ratioP1;P1;durP2;ratioP2;P2;SDS_P1;SDS_P2;PMS_P1;PMS_P2;Temp;Humidity;BMP_temperature;BMP_pressure;BME280_temperature;BME280_humidity;BME280_pressure;Samples;Min_cycle;Max_cycle;Signal;HPM_P1;HPM_P2
2021/12/29 00:01:46;;;;;;;115.13;31.50;;;;;;;;;;4973873;28;20345;-66
2021/12/29 00:04:12;;;;;;;106.97;29.65;;;;;;;;;;4973125;28;20380;-65
2021/12/29 00:06:37;;;;;;;85.60;27.75;;;;;;;;;;4973073;28;20433;-65
2021/12/29 00:09:03;;;;;;;103.18;27.88;;;;;;;;;;4974461;28;20406;-66
2021/12/29 00:11:28;;;;;;;82.32;24.05;;;;;;;;;;4955059;28;20349;-66
2021/12/29 00:13:54;;;;;;;87.43;22.75;;;;;;;;;;4954979;28;20452;-66
2021/12/29 00:16:19;;;;;;;89.90;26.48;;;;;;;;;;4972871;28;20429;-67
2021/12/29 00:18:44;;;;;;;86.25;27.25;;;;;;;;;;4972923;28;20091;-66
2021/12/29 00:21:10;;;;;;;79.18;23.48;;;;;;;;;;4973063;28;20400;-67
2021/12/29 00:23:35;;;;;;;87.38;25.27;;;;;;;;;;4972877;28;20402;-67
2021/12/29 00:26:01;;;;;;;90.65;23.58;;;;;;;;;;4974163;28;20452;-67
2021/12/29 00:28:26;;;;;;;77.57;22.95;;;;;;;;;;4972527;28;20425;-67
2021/12/29 00:30:52;;;;;;;74.38;23.10;;;;;;;;;;4972328;28;20052;-68
2021/12/29 00:33:17;;;;;;;96.60;26.73;;;;;;;;;;4972402;28;20033;-67
2021/12/29 00:35:43;;;;;;;82.63;24.52;;;;;;;;;;4972430;28;20348;-67
2021/12/29 00:38:10;;;;;;;75.13;23.42;;;;;;;;;;4955053;28;20336;-68
2021/12/29 00:40:36;;;;;;;82.85;23.60;;;;;;;;;;4972699;28;20318;-67
2021/12/29 00:43:02;;;;;;;70.35;22.13;;;;;;;;;;4972242;28;20052;-67
2021/12/29 00:45:31;;;;;;;66.15;21.13;;;;;;;;;;4973050;28;20444;-67
2021/12/29 00:47:56;;;;;;;81.30;22.27;;;;;;;;;;4972119;28;20419;-67
2021/12/29 00:50:22;;;;;;;68.88;21.65;;;;;;;;;;4955217;28;20320;-67
2021/12/29 00:52:47;;;;;;;75.20;22.40;;;;;;;;;;4971665;28;20081;-68
2021/12/29 00:55:14;;;;;;;75.78;22.65;;;;;;;;;;4972150;28;20033;-67
2021/12/29 00:57:40;;;;;;;65.72;21.48;;;;;;;;;;4971817;28;20037;-67
2021/12/29 01:00:08;;;;;;;64.03;21.30;;;;;;;;;;4971468;28;20053;-66
2021/12/29 01:02:34;;;;;;;68.32;21.65;;;;;;;;;;4982865;28;20413;-67
2021/12/29 01:04:59;;;;;;;69.97;21.35;;;;;;;;;;4972124;28;20437;-67
2021/12/29 01:07:24;;;;;;;61.85;18.50;;;;;;;;;;4972119;28;20359;-67
2021/12/29 01:09:50;;;;;;;73.53;20.35;;;;;;;;;;4971918;28;20389;-67
2021/12/29 01:12:15;;;;;;;51.05;17.88;;;;;;;;;;4971850;28;20358;-67
2021/12/29 01:14:44;;;;;;;55.63;17.50;;;;;;;;;;4971923;28;20322;-68
2021/12/29 01:17:09;;;;;;;52.80;18.42;;;;;;;;;;4971636;28;20069;-67
2021/12/29 01:19:35;;;;;;;54.97;18.02;;;;;;;;;;4972149;28;20061;-69
2021/12/29 01:22:02;;;;;;;53.35;18.00;;;;;;;;;;4971588;28;20427;-67
2021/12/29 01:24:30;;;;;;;51.35;18.23;;;;;;;;;;4972899;28;20429;-66
2021/12/29 01:26:55;;;;;;;54.25;19.17;;;;;;;;;;4970977;28;20518;-67
2021/12/29 01:29:21;;;;;;;49.05;18.23;;;;;;;;;;4953652;28;20364;-66
2021/12/29 01:31:47;;;;;;;53.63;17.98;;;;;;;;;;4971334;28;20392;-67
2021/12/29 01:34:13;;;;;;;51.90;16.98;;;;;;;;;;4970675;28;20404;-67
2021/12/29 01:36:40;;;;;;;52.70;17.38;;;;;;;;;;4971466;28;20389;-67
2021/12/29 01:39:11;;;;;;;52.70;17.83;;;;;;;;;;4971112;28;20436;-67
2021/12/29 01:41:36;;;;;;;49.13;17.02;;;;;;;;;;4971874;28;20515;-68
2021/12/29 01:44:02;;;;;;;46.08;16.20;;;;;;;;;;4953234;28;20474;-67
2021/12/29 01:46:27;;;;;;;52.95;17.40;;;;;;;;;;4972967;28;20025;-67
2021/12/29 01:48:53;;;;;;;42.15;15.32;;;;;;;;;;4971801;28;20480;-68
2021/12/29 01:51:19;;;;;;;54.28;17.70;;;;;;;;;;4970701;28;20445;-66
2021/12/29 01:54:01;;;;;;;44.97;15.90;;;;;;;;;;4970805;28;20386;-66
2021/12/29 01:56:27;;;;;;;48.42;15.38;;;;;;;;;;4971906;28;20429;-66
2021/12/29 01:58:53;;;;;;;45.17;14.50;;;;;;;;;;4970934;28;20405;-67
2021/12/29 02:01:18;;;;;;;42.80;15.90;;;;;;;;;;4970988;28;20095;-67
2021/12/29 02:03:43;;;;;;;44.92;14.88;;;;;;;;;;4953090;28;20357;-66
2021/12/29 02:06:09;;;;;;;40.20;13.82;;;;;;;;;;4970750;28;20109;-66
2021/12/29 02:08:35;;;;;;;41.83;14.75;;;;;;;;;;4970591;28;20467;-68
2021/12/29 02:11:00;;;;;;;41.03;15.20;;;;;;;;;;4971118;28;20421;-67
2021/12/29 02:13:26;;;;;;;39.58;15.60;;;;;;;;;;4970128;28;20391;-67
2021/12/29 02:15:51;;;;;;;41.78;15.15;;;;;;;;;;4970708;28;20037;-67
2021/12/29 02:18:19;;;;;;;34.67;13.45;;;;;;;;;;4970510;28;20348;-67
2021/12/29 02:20:48;;;;;;;46.00;15.25;;;;;;;;;;4970986;28;20325;-67
2021/12/29 02:23:24;;;;;;;35.78;14.27;;;;;;;;;;4952960;28;20413;-68
2021/12/29 02:25:52;;;;;;;42.03;15.05;;;;;;;;;;4954382;28;20487;-67
2021/12/29 02:28:23;;;;;;;39.38;13.23;;;;;;;;;;4971521;28;20325;-68
2021/12/29 02:30:49;;;;;;;40.63;14.48;;;;;;;;;;4972244;28;20528;-67
2021/12/29 02:33:15;;;;;;;44.28;14.80;;;;;;;;;;4971472;28;20478;-67
2021/12/29 02:35:44;;;;;;;44.60;13.93;;;;;;;;;;4952748;28;20432;-68
2021/12/29 02:38:21;;;;;;;36.13;14.05;;;;;;;;;;4970080;28;20453;-66
2021/12/29 02:40:50;;;;;;;32.08;12.15;;;;;;;;;;4970364;28;20310;-67
2021/12/29 02:43:19;;;;;;;31.02;11.90;;;;;;;;;;4970288;28;20432;-67
2021/12/29 02:45:49;;;;;;;;;;;;;;;;;;4970838;28;20447;-68
2021/12/29 02:48:14;;;;;;;37.47;13.00;;;;;;;;;;4970058;28;20366;-67
2021/12/29 02:50:41;;;;;;;37.50;12.63;;;;;;;;;;4952339;28;20465;-67
2021/12/29 02:53:07;;;;;;;28.88;12.13;;;;;;;;;;4968385;28;20460;-67
2021/12/29 02:55:32;;;;;;;33.92;13.07;;;;;;;;;;4971273;28;20355;-67
2021/12/29 02:57:57;;;;;;;37.28;13.27;;;;;;;;;;4969955;28;20387;-67
2021/12/29 03:00:23;;;;;;;35.78;13.52;;;;;;;;;;4970156;28;20124;-67
2021/12/29 03:02:48;;;;;;;35.40;13.15;;;;;;;;;;4970904;28;20337;-67
2021/12/29 03:05:13;;;;;;;34.38;12.52;;;;;;;;;;4970829;28;20433;-67
2021/12/29 03:07:38;;;;;;;35.17;13.65;;;;;;;;;;4969901;28;20425;-67
2021/12/29 03:10:04;;;;;;;30.15;12.85;;;;;;;;;;4969364;28;20435;-67
2021/12/29 03:12:30;;;;;;;34.30;13.40;;;;;;;;;;4969922;28;20437;-67
2021/12/29 03:14:58;;;;;;;32.22;12.88;;;;;;;;;;4969370;28;20030;-67
2021/12/29 03:17:23;;;;;;;34.00;12.23;;;;;;;;;;4969590;28;20445;-67
2021/12/29 03:19:48;;;;;;;33.38;12.00;;;;;;;;;;4969705;28;20440;-67
2021/12/29 03:22:14;;;;;;;33.92;12.40;;;;;;;;;;4969260;28;20380;-67
2021/12/29 03:24:40;;;;;;;29.92;12.13;;;;;;;;;;4951667;28;20056;-68
2021/12/29 03:27:05;;;;;;;31.00;12.35;;;;;;;;;;4951652;28;20399;-68
2021/12/29 03:29:30;;;;;;;31.55;11.95;;;;;;;;;;4969597;28;20459;-67
2021/12/29 03:31:58;;;;;;;29.52;11.68;;;;;;;;;;4969958;28;20325;-67
2021/12/29 03:34:24;;;;;;;28.05;10.90;;;;;;;;;;4968668;28;20432;-67
2021/12/29 03:36:49;;;;;;;25.63;10.68;;;;;;;;;;4969360;28;20444;-67
2021/12/29 03:39:14;;;;;;;26.95;11.38;;;;;;;;;;4969518;28;20437;-67
2021/12/29 03:41:40;;;;;;;27.77;11.00;;;;;;;;;;4969764;28;20116;-67
2021/12/29 03:44:05;;;;;;;28.05;11.02;;;;;;;;;;4969564;28;20030;-67
2021/12/29 03:46:33;;;;;;;28.25;10.15;;;;;;;;;;4970155;28;20095;-67
2021/12/29 03:48:59;;;;;;;32.38;11.65;;;;;;;;;;4968840;28;20437;-67
2021/12/29 03:51:24;;;;;;;26.90;11.05;;;;;;;;;;4951215;28;20420;-67
2021/12/29 03:53:50;;;;;;;31.10;11.35;;;;;;;;;;4969426;28;20313;-67
2021/12/29 03:56:15;;;;;;;29.27;11.25;;;;;;;;;;4970798;28;20337;-67
2021/12/29 03:58:44;;;;;;;30.67;11.27;;;;;;;;;;4969180;28;20026;-67
2021/12/29 04:01:11;;;;;;;25.73;11.20;;;;;;;;;;4952260;28;20524;-69
2021/12/29 04:03:37;;;;;;;29.10;11.63;;;;;;;;;;4969075;28;20323;-67
2021/12/29 04:06:02;;;;;;;26.52;10.93;;;;;;;;;;4951169;28;20145;-67
2021/12/29 04:08:28;;;;;;;25.38;10.82;;;;;;;;;;4969043;28;20511;-68
2021/12/29 04:10:53;;;;;;;22.38;9.80;;;;;;;;;;4969705;28;20468;-69
2021/12/29 04:13:19;;;;;;;26.00;11.05;;;;;;;;;;4951400;28;20033;-67
2021/12/29 04:15:44;;;;;;;27.17;11.45;;;;;;;;;;4967845;28;20421;-67
2021/12/29 04:18:17;;;;;;;29.42;12.85;;;;;;;;;;4969384;28;20444;-67
2021/12/29 04:20:57;;;;;;;23.85;11.48;;;;;;;;;;4969786;28;20503;-67
2021/12/29 04:23:28;;;;;;;25.85;10.82;;;;;;;;;;4953181;28;20491;-67
2021/12/29 04:25:54;;;;;;;27.85;10.57;;;;;;;;;;4969321;28;20343;-67
2021/12/29 04:28:23;;;;;;;22.13;9.63;;;;;;;;;;4968753;28;20467;-67
2021/12/29 04:30:50;;;;;;;27.30;10.77;;;;;;;;;;4969135;28;20296;-67
2021/12/29 04:33:16;;;;;;;22.98;10.43;;;;;;;;;;4970240;28;20452;-69
2021/12/29 04:35:42;;;;;;;21.98;11.02;;;;;;;;;;4968627;28;20060;-67
2021/12/29 04:38:07;;;;;;;22.15;10.00;;;;;;;;;;4954367;28;20436;-68
2021/12/29 04:40:34;;;;;;;26.48;11.07;;;;;;;;;;4972144;28;20029;-67
2021/12/29 04:42:59;;;;;;;27.35;10.73;;;;;;;;;;4972170;28;20333;-67
2021/12/29 04:45:24;;;;;;;20.17;10.00;;;;;;;;;;4972412;28;20065;-67
2021/12/29 04:47:50;;;;;;;27.20;10.63;;;;;;;;;;4972280;28;20222;-68
2021/12/29 04:50:30;;;;;;;23.77;10.35;;;;;;;;;;4972245;28;20524;-67
2021/12/29 04:53:00;;;;;;;21.50;10.40;;;;;;;;;;4972002;28;20372;-67
2021/12/29 04:55:27;;;;;;;22.35;9.73;;;;;;;;;;4971880;28;20440;-66
2021/12/29 04:57:53;;;;;;;23.70;10.50;;;;;;;;;;4954917;28;20332;-68
2021/12/29 05:00:21;;;;;;;24.25;9.85;;;;;;;;;;4955186;28;20496;-67
2021/12/29 05:02:47;;;;;;;24.90;10.70;;;;;;;;;;4972587;28;20341;-67
2021/12/29 05:05:22;;;;;;;21.70;10.20;;;;;;;;;;4971905;28;20389;-66
2021/12/29 05:10:33;;;;;;;25.40;9.90;;;;;;;;;;4957739;28;20502;-67
2021/12/29 05:12:58;;;;;;;23.85;10.27;;;;;;;;;;4972661;28;20310;-67
2021/12/29 05:15:23;;;;;;;26.00;10.43;;;;;;;;;;4971669;28;20345;-66
2021/12/29 05:17:48;;;;;;;21.73;9.82;;;;;;;;;;4972830;28;20389;-67
2021/12/29 05:20:14;;;;;;;23.33;10.10;;;;;;;;;;4973100;28;20336;-68
2021/12/29 05:22:39;;;;;;;21.38;9.30;;;;;;;;;;4971347;28;20417;-66
2021/12/29 05:25:05;;;;;;;21.77;9.60;;;;;;;;;;4971603;28;20025;-67
2021/12/29 05:27:31;;;;;;;29.35;10.43;;;;;;;;;;4972209;28;20056;-67
2021/12/29 05:29:56;;;;;;;16.58;8.30;;;;;;;;;;4971706;28;20433;-67
2021/12/29 05:32:21;;;;;;;24.92;10.15;;;;;;;;;;4972035;28;20353;-67
2021/12/29 05:34:47;;;;;;;23.55;9.48;;;;;;;;;;4971563;28;20506;-67
2021/12/29 05:37:12;;;;;;;26.25;10.43;;;;;;;;;;4971504;28;20472;-67
2021/12/29 05:39:37;;;;;;;22.48;9.70;;;;;;;;;;4971523;28;20091;-67
2021/12/29 05:42:03;;;;;;;20.40;9.20;;;;;;;;;;4971352;28;20417;-67
2021/12/29 05:44:28;;;;;;;20.50;9.93;;;;;;;;;;4953545;28;20483;-67
2021/12/29 05:46:54;;;;;;;21.63;9.77;;;;;;;;;;4971191;28;20352;-67
2021/12/29 05:49:19;;;;;;;24.75;10.95;;;;;;;;;;4970507;28;20156;-68
2021/12/29 05:51:44;;;;;;;23.38;10.80;;;;;;;;;;4952877;28;20360;-67
2021/12/29 05:54:10;;;;;;;20.05;9.68;;;;;;;;;;4970859;28;20361;-66
2021/12/29 05:56:37;;;;;;;26.25;11.23;;;;;;;;;;4971330;28;20383;-67
2021/12/29 05:59:02;;;;;;;22.30;10.20;;;;;;;;;;4971909;28;20539;-66
2021/12/29 06:01:28;;;;;;;20.02;9.25;;;;;;;;;;4971177;28;20348;-67
2021/12/29 06:03:54;;;;;;;24.90;9.98;;;;;;;;;;4969441;28;20367;-67
2021/12/29 06:06:20;;;;;;;23.23;10.60;;;;;;;;;;4970932;28;20395;-67
2021/12/29 06:08:45;;;;;;;23.15;9.63;;;;;;;;;;4970596;28;20026;-68
2021/12/29 06:11:10;;;;;;;21.20;9.43;;;;;;;;;;4970742;28;20337;-67
2021/12/29 06:13:36;;;;;;;21.80;10.40;;;;;;;;;;4970954;28;20376;-67
2021/12/29 06:16:01;;;;;;;24.30;10.13;;;;;;;;;;4970860;28;20447;-67
2021/12/29 06:18:26;;;;;;;19.48;9.93;;;;;;;;;;4971286;28;20025;-67
2021/12/29 06:20:52;;;;;;;20.13;8.68;;;;;;;;;;4970574;28;20407;-68
2021/12/29 06:23:17;;;;;;;23.67;10.57;;;;;;;;;;4970505;28;20030;-67
2021/12/29 06:25:43;;;;;;;18.95;9.63;;;;;;;;;;4970845;28;20423;-67
2021/12/29 06:28:08;;;;;;;27.77;10.93;;;;;;;;;;4970627;28;20430;-69
2021/12/29 06:30:33;;;;;;;22.23;10.35;;;;;;;;;;4970786;28;20571;-67
2021/12/29 06:32:59;;;;;;;21.38;10.38;;;;;;;;;;4970411;28;20360;-68
2021/12/29 06:35:24;;;;;;;22.50;10.40;;;;;;;;;;4970205;28;20567;-66
2021/12/29 06:37:49;;;;;;;23.70;9.90;;;;;;;;;;4969297;28;20401;-67
2021/12/29 06:40:15;;;;;;;19.38;9.50;;;;;;;;;;4970680;28;20507;-67
2021/12/29 06:42:41;;;;;;;25.30;9.95;;;;;;;;;;4970621;28;20399;-67
2021/12/29 06:45:07;;;;;;;23.30;9.80;;;;;;;;;;4952512;28;20488;-67
2021/12/29 06:47:32;;;;;;;21.55;9.73;;;;;;;;;;4970203;28;20112;-67
2021/12/29 06:49:57;;;;;;;23.00;9.98;;;;;;;;;;4952323;28;20051;-67
2021/12/29 06:52:23;;;;;;;21.15;10.00;;;;;;;;;;4969990;28;20344;-66
2021/12/29 06:54:48;;;;;;;23.90;10.18;;;;;;;;;;4951959;28;20352;-68
2021/12/29 06:57:14;;;;;;;21.20;10.27;;;;;;;;;;4969821;28;20485;-66
2021/12/29 06:59:39;;;;;;;21.42;9.95;;;;;;;;;;4969993;28;20033;-68
2021/12/29 07:02:05;;;;;;;19.38;8.93;;;;;;;;;;4970101;28;20463;-67
2021/12/29 07:04:30;;;;;;;24.67;9.60;;;;;;;;;;4970158;28;20429;-67
2021/12/29 07:06:56;;;;;;;21.70;9.70;;;;;;;;;;4952650;28;20436;-67
2021/12/29 07:09:21;;;;;;;20.20;8.45;;;;;;;;;;4969725;28;20048;-67
2021/12/29 07:11:47;;;;;;;17.25;8.98;;;;;;;;;;4969303;28;20492;-67
2021/12/29 07:14:13;;;;;;;18.73;9.88;;;;;;;;;;4969311;28;20476;-67
2021/12/29 07:16:39;;;;;;;22.02;9.45;;;;;;;;;;4970299;28;20428;-67
2021/12/29 07:19:06;;;;;;;22.02;10.52;;;;;;;;;;4969744;28;20068;-67
2021/12/29 07:21:31;;;;;;;22.90;10.25;;;;;;;;;;4969376;28;20421;-67
2021/12/29 07:23:57;;;;;;;19.88;9.40;;;;;;;;;;4951837;28;20457;-67
2021/12/29 07:26:22;;;;;;;23.63;9.57;;;;;;;;;;4969836;28;20449;-67
2021/12/29 07:28:48;;;;;;;20.55;10.35;;;;;;;;;;4969703;28;20413;-67
2021/12/29 07:31:14;;;;;;;17.50;8.40;;;;;;;;;;4952000;28;20318;-67
2021/12/29 07:33:39;;;;;;;21.55;9.88;;;;;;;;;;4969571;28;20409;-67
2021/12/29 07:36:04;;;;;;;17.67;8.70;;;;;;;;;;4969833;28;20029;-67
2021/12/29 07:38:30;;;;;;;20.88;8.75;;;;;;;;;;4969457;28;20108;-67
2021/12/29 07:40:55;;;;;;;22.42;9.82;;;;;;;;;;4969764;28;20030;-68
2021/12/29 07:43:21;;;;;;;20.15;9.77;;;;;;;;;;4951345;28;20417;-66
2021/12/29 07:45:46;;;;;;;17.05;9.20;;;;;;;;;;4951415;28;20044;-67
2021/12/29 07:48:12;;;;;;;17.50;8.55;;;;;;;;;;4969454;28;20519;-72
2021/12/29 07:50:38;;;;;;;17.77;8.90;;;;;;;;;;4969334;28;20449;-67
2021/12/29 07:53:05;;;;;;;20.38;10.15;;;;;;;;;;4951162;28;20399;-67
2021/12/29 07:55:30;;;;;;;20.30;10.13;;;;;;;;;;4969347;28;20451;-67
2021/12/29 07:57:56;;;;;;;20.83;9.32;;;;;;;;;;4969056;28;20457;-67
2021/12/29 08:00:21;;;;;;;23.42;10.70;;;;;;;;;;4970064;28;20040;-67
2021/12/29 08:02:47;;;;;;;22.88;10.38;;;;;;;;;;4969923;28;20520;-69
2021/12/29 08:05:13;;;;;;;23.73;9.55;;;;;;;;;;4970728;28;20461;-69
2021/12/29 08:07:38;;;;;;;23.48;10.10;;;;;;;;;;4950899;28;20425;-67
2021/12/29 08:10:04;;;;;;;40.47;17.90;;;;;;;;;;4969169;28;20072;-67
2021/12/29 08:12:31;;;;;;;53.97;23.88;;;;;;;;;;4954619;28;20033;-66
2021/12/29 08:14:56;;;;;;;44.47;18.90;;;;;;;;;;4976611;28;20360;-66
2021/12/29 08:17:21;;;;;;;36.97;15.70;;;;;;;;;;4991757;28;20436;-67
2021/12/29 08:19:46;;;;;;;49.97;16.83;;;;;;;;;;4992501;28;20462;-66
2021/12/29 08:22:12;;;;;;;73.75;16.67;;;;;;;;;;4974373;28;20436;-67
2021/12/29 08:24:37;;;;;;;75.47;20.38;;;;;;;;;;4990172;28;20020;-66
2021/12/29 08:27:03;;;;;;;69.72;23.88;;;;;;;;;;4992335;28;20471;-65
2021/12/29 08:29:28;;;;;;;62.80;24.58;;;;;;;;;;4991248;28;20460;-66
2021/12/29 08:31:56;;;;;;;66.15;18.50;;;;;;;;;;4991687;28;20100;-67
2021/12/29 08:34:22;;;;;;;64.95;19.17;;;;;;;;;;4992293;28;20305;-65
2021/12/29 08:36:47;;;;;;;55.70;19.95;;;;;;;;;;5002437;28;20090;-66
2021/12/29 08:39:14;;;;;;;42.00;19.70;;;;;;;;;;5011727;28;20403;-67
2021/12/29 08:41:39;;;;;;;64.75;18.15;;;;;;;;;;5011931;28;20348;-65
2021/12/29 08:44:04;;;;;;;46.30;20.02;;;;;;;;;;4997554;28;20344;-66
2021/12/29 08:46:31;;;;;;;45.70;17.75;;;;;;;;;;4992107;28;20314;-66
2021/12/29 08:48:57;;;;;;;43.63;18.25;;;;;;;;;;4991854;28;20467;-66
2021/12/29 08:51:22;;;;;;;46.65;18.30;;;;;;;;;;4995296;28;20049;-66
2021/12/29 08:53:48;;;;;;;48.63;17.58;;;;;;;;;;4992588;28;20029;-66
2021/12/29 08:56:16;;;;;;;41.28;18.42;;;;;;;;;;4974324;28;20431;-66
2021/12/29 08:58:42;;;;;;;53.85;19.10;;;;;;;;;;4991668;28;20428;-66
2021/12/29 09:01:07;;;;;;;60.58;19.83;;;;;;;;;;4992365;28;20423;-66
2021/12/29 09:03:33;;;;;;;43.92;20.08;;;;;;;;;;4991890;28;20416;-66
2021/12/29 09:05:58;;;;;;;43.53;19.30;;;;;;;;;;4991109;28;20435;-66
2021/12/29 09:08:23;;;;;;;47.17;19.85;;;;;;;;;;4991922;28;20479;-66
2021/12/29 09:10:49;;;;;;;39.28;18.70;;;;;;;;;;4991569;28;20440;-66
2021/12/29 09:13:14;;;;;;;48.88;18.15;;;;;;;;;;4992362;28;20439;-66
2021/12/29 09:15:40;;;;;;;50.17;18.40;;;;;;;;;;4991229;28;20052;-66
2021/12/29 09:18:06;;;;;;;37.08;17.38;;;;;;;;;;4990886;28;20029;-66
2021/12/29 09:20:33;;;;;;;48.25;19.42;;;;;;;;;;4991639;28;20506;-67
2021/12/29 09:23:03;;;;;;;40.95;19.02;;;;;;;;;;4990794;28;20036;-66
2021/12/29 09:25:29;;;;;;;34.80;17.55;;;;;;;;;;4992577;28;20466;-66
2021/12/29 09:27:55;;;;;;;34.78;17.50;;;;;;;;;;4991094;28;20442;-67
2021/12/29 09:30:23;;;;;;;40.60;18.55;;;;;;;;;;4973299;28;20106;-68
2021/12/29 09:32:49;;;;;;;32.65;16.38;;;;;;;;;;4990373;28;20383;-66
2021/12/29 09:35:16;;;;;;;46.63;19.38;;;;;;;;;;4990552;28;20037;-68
2021/12/29 09:37:42;;;;;;;36.50;16.95;;;;;;;;;;4991232;28;20302;-66
2021/12/29 09:40:08;;;;;;;41.83;16.92;;;;;;;;;;4992721;28;20420;-67
2021/12/29 09:42:34;;;;;;;36.42;18.35;;;;;;;;;;4986308;28;20034;-66
2021/12/29 09:44:59;;;;;;;37.08;18.05;;;;;;;;;;4988027;28;20028;-67
2021/12/29 09:47:25;;;;;;;48.08;19.88;;;;;;;;;;4973129;28;20045;-65
2021/12/29 09:49:50;;;;;;;53.42;24.70;;;;;;;;;;4990834;28;20363;-66
2021/12/29 09:52:15;;;;;;;81.97;32.88;;;;;;;;;;4992405;28;20114;-68
2021/12/29 09:54:41;;;;;;;75.13;32.63;;;;;;;;;;4999283;28;20025;-66
2021/12/29 09:57:06;;;;;;;90.70;33.53;;;;;;;;;;5008437;28;20428;-68
2021/12/29 09:59:32;;;;;;;72.80;32.47;;;;;;;;;;5009701;28;20058;-68
2021/12/29 10:01:58;;;;;;;72.05;27.30;;;;;;;;;;5010631;28;20579;-66
2021/12/29 10:04:24;;;;;;;65.60;28.02;;;;;;;;;;5012056;28;20351;-66
2021/12/29 10:06:50;;;;;;;56.05;27.02;;;;;;;;;;5009849;28;20375;-66
2021/12/29 10:09:17;;;;;;;65.28;28.13;;;;;;;;;;5010096;28;20351;-66
2021/12/29 10:11:45;;;;;;;60.72;26.80;;;;;;;;;;5010239;28;20278;-66
2021/12/29 10:14:12;;;;;;;61.50;24.05;;;;;;;;;;5010110;28;20021;-66
2021/12/29 10:16:39;;;;;;;63.38;26.92;;;;;;;;;;5009810;28;20394;-66
2021/12/29 10:19:10;;;;;;;74.28;25.77;;;;;;;;;;5008820;28;20051;-66
2021/12/29 10:21:41;;;;;;;61.45;26.60;;;;;;;;;;5004645;28;20356;-69
2021/12/29 10:24:07;;;;;;;56.92;25.48;;;;;;;;;;4974355;28;20380;-68
2021/12/29 10:26:34;;;;;;;62.85;25.20;;;;;;;;;;4992904;28;20352;-68
2021/12/29 10:29:07;;;;;;;70.65;27.27;;;;;;;;;;5009778;28;20486;-68
2021/12/29 10:31:38;;;;;;;72.32;26.90;;;;;;;;;;5010467;28;20455;-68
2021/12/29 10:34:10;;;;;;;51.15;25.52;;;;;;;;;;5009586;28;20366;-67
2021/12/29 10:36:41;;;;;;;143.43;66.40;;;;;;;;;;5009651;28;20398;-70
2021/12/29 10:39:18;;;;;;;208.48;93.55;;;;;;;;;;5006756;28;20343;-69
2021/12/29 10:41:50;;;;;;;193.57;84.93;;;;;;;;;;5009668;28;20137;-68
2021/12/29 10:44:23;;;;;;;160.63;66.30;;;;;;;;;;5009304;28;20051;-68
2021/12/29 10:46:49;;;;;;;161.75;73.90;;;;;;;;;;5010807;28;20493;-69
2021/12/29 10:49:14;;;;;;;315.33;135.00;;;;;;;;;;5009779;28;20043;-68
2021/12/29 10:51:45;;;;;;;367.17;159.40;;;;;;;;;;5008013;28;20364;-67
2021/12/29 10:54:12;;;;;;;274.05;119.90;;;;;;;;;;5008398;28;20445;-67
2021/12/29 10:56:39;;;;;;;262.50;118.43;;;;;;;;;;5009176;28;20418;-69
2021/12/29 10:59:36;;;;;;;258.50;112.32;;;;;;;;;;5009519;28;20094;-67
2021/12/29 11:02:02;;;;;;;229.18;104.28;;;;;;;;;;4986805;28;20352;-67
2021/12/29 11:04:27;;;;;;;224.77;103.20;;;;;;;;;;4991371;28;20447;-67
2021/12/29 11:07:01;;;;;;;208.50;91.50;;;;;;;;;;5009672;28;20307;-67
2021/12/29 11:09:29;;;;;;;202.68;89.97;;;;;;;;;;5009319;28;20428;-71
2021/12/29 11:11:55;;;;;;;184.35;84.93;;;;;;;;;;5010096;28;20332;-68
2021/12/29 11:14:30;;;;;;;185.73;80.15;;;;;;;;;;4996429;28;20385;-68
2021/12/29 11:17:15;;;;;;;148.35;69.43;;;;;;;;;;4989311;28;20387;-67
2021/12/29 11:19:48;;;;;;;142.35;69.75;;;;;;;;;;4989171;28;20340;-66
2021/12/29 11:22:16;;;;;;;149.07;63.63;;;;;;;;;;4990413;28;20098;-67
2021/12/29 11:24:43;;;;;;;137.88;61.72;;;;;;;;;;4988759;28;20325;-65
2021/12/29 11:27:14;;;;;;;139.10;64.28;;;;;;;;;;4988216;28;20428;-65
2021/12/29 11:29:50;;;;;;;143.30;63.38;;;;;;;;;;4989665;28;20450;-67
2021/12/29 11:32:21;;;;;;;131.73;60.45;;;;;;;;;;4989241;28;20033;-68
2021/12/29 11:34:57;;;;;;;127.10;58.08;;;;;;;;;;4990146;28;20489;-68
2021/12/29 11:37:23;;;;;;;122.32;56.60;;;;;;;;;;4988060;28;20029;-68
2021/12/29 11:39:48;;;;;;;113.20;52.25;;;;;;;;;;4987506;28;20334;-69
2021/12/29 11:42:15;;;;;;;122.32;52.25;;;;;;;;;;4987560;28;20379;-67
2021/12/29 11:44:41;;;;;;;120.88;51.60;;;;;;;;;;4989227;28;20029;-67
2021/12/29 11:47:08;;;;;;;107.03;50.50;;;;;;;;;;4992594;28;20549;-67
2021/12/29 11:49:33;;;;;;;111.95;50.25;;;;;;;;;;4993126;28;20467;-67
2021/12/29 11:52:07;;;;;;;101.10;49.03;;;;;;;;;;4972813;28;20536;-70
2021/12/29 11:54:50;;;;;;;96.13;46.15;;;;;;;;;;4991375;28;20032;-68
2021/12/29 11:57:21;;;;;;;92.43;45.00;;;;;;;;;;4991229;28;20041;-68
2021/12/29 11:59:46;;;;;;;101.13;44.47;;;;;;;;;;4994258;28;20127;-68
2021/12/29 12:02:25;;;;;;;83.30;43.63;;;;;;;;;;4992893;28;20037;-67
2021/12/29 12:05:05;;;;;;;88.60;42.97;;;;;;;;;;4991990;28;20352;-68
2021/12/29 12:07:30;;;;;;;;;;;;;;;;;;4993487;28;20466;-69
2021/12/29 12:09:59;;;;;;;78.25;40.40;;;;;;;;;;4991233;28;19920;-67
2021/12/29 12:12:36;;;;;;;87.47;40.03;;;;;;;;;;4991590;28;20478;-68
2021/12/29 12:15:07;;;;;;;87.72;40.28;;;;;;;;;;4992661;28;20463;-68
2021/12/29 12:17:33;;;;;;;89.47;38.97;;;;;;;;;;4993472;28;20033;-67
2021/12/29 12:20:02;;;;;;;69.22;36.13;;;;;;;;;;4974611;28;20493;-69
2021/12/29 12:22:29;;;;;;;72.20;34.03;;;;;;;;;;4990723;28;20366;-69
2021/12/29 12:24:54;;;;;;;74.10;33.95;;;;;;;;;;4990280;28;20317;-68
2021/12/29 12:27:28;;;;;;;63.80;32.13;;;;;;;;;;4992595;28;20384;-69
2021/12/29 12:30:07;;;;;;;78.65;34.63;;;;;;;;;;4994007;28;20438;-68
2021/12/29 12:32:52;;;;;;;72.40;34.03;;;;;;;;;;4992083;28;20455;-69
2021/12/29 12:35:30;;;;;;;69.57;29.90;;;;;;;;;;4992464;28;20457;-69
2021/12/29 12:37:55;;;;;;;89.15;32.95;;;;;;;;;;4993642;28;20344;-68
2021/12/29 12:40:23;;;;;;;87.72;30.65;;;;;;;;;;4994441;28;20048;-68
2021/12/29 12:43:11;;;;;;;71.07;31.85;;;;;;;;;;4988123;28;20029;-70
2021/12/29 12:45:40;;;;;;;63.38;28.60;;;;;;;;;;5001301;28;20067;-69
2021/12/29 12:48:11;;;;;;;61.15;30.05;;;;;;;;;;5010067;28;20489;-68
2021/12/29 12:50:38;;;;;;;62.97;28.35;;;;;;;;;;5013527;28;20032;-69
2021/12/29 12:53:04;;;;;;;74.50;28.02;;;;;;;;;;5011364;28;20040;-68
2021/12/29 12:55:32;;;;;;;68.72;28.60;;;;;;;;;;5010196;28;20548;-68
2021/12/29 12:58:08;;;;;;;53.67;26.13;;;;;;;;;;4997018;28;20443;-68
2021/12/29 13:00:34;;;;;;;55.00;24.95;;;;;;;;;;4990678;28;20526;-69
2021/12/29 13:03:04;;;;;;;58.72;26.88;;;;;;;;;;4991792;28;20435;-67
2021/12/29 13:05:38;;;;;;;57.17;27.70;;;;;;;;;;4990834;28;20344;-67
2021/12/29 13:08:05;;;;;;;48.38;23.63;;;;;;;;;;4991823;28;20506;-73
2021/12/29 13:10:36;;;;;;;47.25;23.38;;;;;;;;;;4995009;28;20459;-68
2021/12/29 13:13:09;;;;;;;55.13;25.20;;;;;;;;;;4995540;28;20426;-68
2021/12/29 13:15:34;;;;;;;43.67;22.77;;;;;;;;;;4987284;28;20597;-69
2021/12/29 13:18:00;;;;;;;49.08;24.20;;;;;;;;;;4991399;28;20432;-67
2021/12/29 13:20:25;;;;;;;56.15;25.45;;;;;;;;;;5011062;28;20107;-69
2021/12/29 13:22:51;;;;;;;60.00;25.30;;;;;;;;;;5009924;28;20440;-69
2021/12/29 13:25:28;;;;;;;74.70;23.63;;;;;;;;;;4993035;28;20386;-68
2021/12/29 13:28:01;;;;;;;50.42;24.08;;;;;;;;;;5010296;28;20371;-68
2021/12/29 13:30:29;;;;;;;68.03;24.50;;;;;;;;;;5011436;28;20032;-68
2021/12/29 13:32:57;;;;;;;47.55;23.95;;;;;;;;;;5004407;28;20424;-68
2021/12/29 13:35:25;;;;;;;60.83;25.23;;;;;;;;;;5009185;28;20474;-68
2021/12/29 13:37:51;;;;;;;65.80;23.50;;;;;;;;;;4980377;28;20556;-69
2021/12/29 13:40:19;;;;;;;48.88;25.58;;;;;;;;;;5006245;28;20056;-69
2021/12/29 13:42:45;;;;;;;49.63;25.15;;;;;;;;;;5006005;28;20432;-68
2021/12/29 13:45:25;;;;;;;56.97;28.65;;;;;;;;;;4995111;28;20408;-71
2021/12/29 13:47:51;;;;;;;56.88;28.75;;;;;;;;;;4990791;28;20418;-71
2021/12/29 13:50:17;;;;;;;65.57;30.27;;;;;;;;;;4991142;28;20560;-68
2021/12/29 13:52:55;;;;;;;84.03;31.83;;;;;;;;;;4991243;28;20482;-68
2021/12/29 13:55:30;;;;;;;72.57;32.58;;;;;;;;;;5002043;28;20467;-68
2021/12/29 13:57:57;;;;;;;75.43;36.42;;;;;;;;;;4992319;28;20432;-69
2021/12/29 14:00:23;;;;;;;80.65;37.60;;;;;;;;;;4973637;28;20340;-68
2021/12/29 14:02:49;;;;;;;75.20;35.65;;;;;;;;;;4981143;28;20029;-68
2021/12/29 14:05:15;;;;;;;65.95;34.03;;;;;;;;;;4990845;28;20044;-69
2021/12/29 14:07:40;;;;;;;67.72;32.63;;;;;;;;;;4990968;28;20128;-69
2021/12/29 14:10:07;;;;;;;72.53;31.73;;;;;;;;;;4992937;28;20024;-68
2021/12/29 14:12:35;;;;;;;59.92;30.05;;;;;;;;;;4997492;28;20532;-69
2021/12/29 14:15:06;;;;;;;64.97;31.48;;;;;;;;;;4997335;28;20397;-69
2021/12/29 14:17:43;;;;;;;61.53;30.40;;;;;;;;;;4974733;28;20025;-68
2021/12/29 14:20:12;;;;;;;62.55;28.98;;;;;;;;;;4996407;28;20466;-69
2021/12/29 14:22:37;;;;;;;55.65;26.98;;;;;;;;;;5008515;28;20301;-68